sensor_id;sensor_type;location;lat;lon;timestamp;P1;durP1;ratioP1;P2;durP2;ratioP2
36391;SDS011;22639;42.690;23.356;2023-04-15T00:02:24;1.27;;;1.13;;
36391;SDS011;22639;42.690;23.356;2023-04-15T00:05:48;3.10;;;1.00;;
36391;SDS011;22639;42.690;23.356;2023-04-15T00:09:17;3.20;;;1.33;;
36391;SDS011;22639;42.690;23.356;2023-04-15T00:12:41;4.17;;;2.13;;
36391;SDS011;22639;42.690;23.356;2023-04-15T00:16:05;3.27;;;2.03;;
36391;SDS011;22639;42.690;23.356;2023-04-15T00:19:30;4.97;;;2.77;;
36391;SDS011;22639;42.690;23.356;2023-04-15T00:22:54;4.10;;;3.00;;
36391;SDS011;22639;42.690;23.356;2023-04-15T00:26:18;3.30;;;2.40;;
36391;SDS011;22639;42.690;23.356;2023-04-15T00:29:41;3.03;;;2.00;;
36391;SDS011;22639;42.690;23.356;2023-04-15T00:33:06;7.63;;;3.07;;
36391;SDS011;22639;42.690;23.356;2023-04-15T00:36:30;4.27;;;3.23;;
36391;SDS011;22639;42.690;23.356;2023-04-15T00:39:54;3.67;;;3.30;;
36391;SDS011;22639;42.690;23.356;2023-04-15T00:43:19;7.50;;;3.10;;
36391;SDS011;22639;42.690;23.356;2023-04-15T00:46:42;4.40;;;2.80;;
36391;SDS011;22639;42.690;23.356;2023-04-15T00:50:07;3.50;;;2.43;;
36391;SDS011;22639;42.690;23.356;2023-04-15T00:53:32;4.63;;;2.63;;
36391;SDS011;22639;42.690;23.356;2023-04-15T00:56:56;2.73;;;2.53;;
36391;SDS011;22639;42.690;23.356;2023-04-15T01:00:21;2.97;;;2.30;;
36391;SDS011;22639;42.690;23.356;2023-04-15T01:03:46;4.03;;;2.53;;
36391;SDS011;22639;42.690;23.356;2023-04-15T01:07:11;2.50;;;1.60;;
36391;SDS011;22639;42.690;23.356;2023-04-15T01:10:34;2.33;;;1.80;;
36391;SDS011;22639;42.690;23.356;2023-04-15T01:13:59;3.03;;;1.10;;
36391;SDS011;22639;42.690;23.356;2023-04-15T01:17:24;3.37;;;1.43;;
36391;SDS011;22639;42.690;23.356;2023-04-15T01:20:48;3.57;;;1.90;;
36391;SDS011;22639;42.690;23.356;2023-04-15T01:24:12;1.53;;;1.07;;
36391;SDS011;22639;42.690;23.356;2023-04-15T01:27:42;2.10;;;1.50;;
36391;SDS011;22639;42.690;23.356;2023-04-15T01:31:10;5.17;;;2.97;;
36391;SDS011;22639;42.690;23.356;2023-04-15T01:34:34;3.13;;;1.90;;
36391;SDS011;22639;42.690;23.356;2023-04-15T01:38:05;4.27;;;1.33;;
36391;SDS011;22639;42.690;23.356;2023-04-15T01:41:30;2.00;;;1.67;;
36391;SDS011;22639;42.690;23.356;2023-04-15T01:44:54;1.33;;;1.23;;
36391;SDS011;22639;42.690;23.356;2023-04-15T01:48:18;1.97;;;1.37;;
36391;SDS011;22639;42.690;23.356;2023-04-15T01:51:42;1.60;;;1.30;;
36391;SDS011;22639;42.690;23.356;2023-04-15T01:55:07;2.27;;;2.03;;
36391;SDS011;22639;42.690;23.356;2023-04-15T01:58:32;2.37;;;2.13;;
36391;SDS011;22639;42.690;23.356;2023-04-15T02:01:56;5.90;;;2.90;;
36391;SDS011;22639;42.690;23.356;2023-04-15T02:05:20;1.73;;;1.63;;
36391;SDS011;22639;42.690;23.356;2023-04-15T02:08:43;1.90;;;1.57;;
36391;SDS011;22639;42.690;23.356;2023-04-15T02:12:08;5.80;;;1.43;;
36391;SDS011;22639;42.690;23.356;2023-04-15T02:15:32;5.10;;;2.10;;
36391;SDS011;22639;42.690;23.356;2023-04-15T02:18:56;2.77;;;1.70;;
36391;SDS011;22639;42.690;23.356;2023-04-15T02:22:20;2.60;;;2.07;;
36391;SDS011;22639;42.690;23.356;2023-04-15T02:25:44;5.03;;;2.03;;
36391;SDS011;22639;42.690;23.356;2023-04-15T02:29:08;4.90;;;2.80;;
36391;SDS011;22639;42.690;23.356;2023-04-15T02:32:33;2.40;;;1.90;;
36391;SDS011;22639;42.690;23.356;2023-04-15T02:35:57;4.93;;;2.47;;
36391;SDS011;22639;42.690;23.356;2023-04-15T02:39:21;3.37;;;2.17;;
36391;SDS011;22639;42.690;23.356;2023-04-15T02:42:45;3.90;;;1.90;;
36391;SDS011;22639;42.690;23.356;2023-04-15T02:46:09;3.07;;;2.50;;
36391;SDS011;22639;42.690;23.356;2023-04-15T02:49:34;4.73;;;2.73;;
36391;SDS011;22639;42.690;23.356;2023-04-15T02:52:58;3.57;;;1.97;;
36391;SDS011;22639;42.690;23.356;2023-04-15T02:56:22;3.73;;;2.33;;
36391;SDS011;22639;42.690;23.356;2023-04-15T02:59:46;5.37;;;2.40;;
36391;SDS011;22639;42.690;23.356;2023-04-15T03:03:10;2.10;;;1.67;;
36391;SDS011;22639;42.690;23.356;2023-04-15T03:06:34;3.80;;;1.83;;
36391;SDS011;22639;42.690;23.356;2023-04-15T03:09:58;1.77;;;1.17;;
36391;SDS011;22639;42.690;23.356;2023-04-15T03:13:24;3.03;;;1.63;;
36391;SDS011;22639;42.690;23.356;2023-04-15T03:16:48;1.80;;;1.33;;
36391;SDS011;22639;42.690;23.356;2023-04-15T03:20:13;4.70;;;1.40;;
36391;SDS011;22639;42.690;23.356;2023-04-15T03:23:37;1.70;;;1.47;;
36391;SDS011;22639;42.690;23.356;2023-04-15T03:27:01;1.83;;;1.33;;
36391;SDS011;22639;42.690;23.356;2023-04-15T03:30:25;6.93;;;2.00;;
36391;SDS011;22639;42.690;23.356;2023-04-15T03:33:49;1.13;;;1.03;;
36391;SDS011;22639;42.690;23.356;2023-04-15T03:37:13;2.20;;;1.77;;
36391;SDS011;22639;42.690;23.356;2023-04-15T03:40:37;7.67;;;2.07;;
36391;SDS011;22639;42.690;23.356;2023-04-15T03:44:01;3.53;;;1.70;;
36391;SDS011;22639;42.690;23.356;2023-04-15T03:47:25;2.70;;;1.67;;
36391;SDS011;22639;42.690;23.356;2023-04-15T03:50:49;3.63;;;1.70;;
36391;SDS011;22639;42.690;23.356;2023-04-15T03:54:13;6.93;;;2.97;;
36391;SDS011;22639;42.690;23.356;2023-04-15T03:57:37;6.10;;;1.90;;
36391;SDS011;22639;42.690;23.356;2023-04-15T04:01:01;2.80;;;1.77;;
36391;SDS011;22639;42.690;23.356;2023-04-15T04:04:25;3.87;;;1.63;;
36391;SDS011;22639;42.690;23.356;2023-04-15T04:07:50;2.60;;;1.63;;
36391;SDS011;22639;42.690;23.356;2023-04-15T04:11:14;1.90;;;1.60;;
36391;SDS011;22639;42.690;23.356;2023-04-15T04:14:38;2.63;;;1.70;;
36391;SDS011;22639;42.690;23.356;2023-04-15T04:18:04;6.13;;;2.33;;
36391;SDS011;22639;42.690;23.356;2023-04-15T04:21:28;2.63;;;2.10;;
36391;SDS011;22639;42.690;23.356;2023-04-15T04:24:52;6.90;;;2.60;;
36391;SDS011;22639;42.690;23.356;2023-04-15T04:28:17;3.43;;;2.37;;
36391;SDS011;22639;42.690;23.356;2023-04-15T04:31:41;6.27;;;2.70;;
36391;SDS011;22639;42.690;23.356;2023-04-15T04:35:05;3.40;;;2.77;;
36391;SDS011;22639;42.690;23.356;2023-04-15T04:38:29;5.23;;;2.90;;
36391;SDS011;22639;42.690;23.356;2023-04-15T04:41:53;3.10;;;2.70;;
36391;SDS011;22639;42.690;23.356;2023-04-15T04:45:18;4.43;;;3.38;;
36391;SDS011;22639;42.690;23.356;2023-04-15T04:48:42;10.32;;;4.80;;
36391;SDS011;22639;42.690;23.356;2023-04-15T04:52:06;5.53;;;3.50;;
36391;SDS011;22639;42.690;23.356;2023-04-15T04:55:30;5.75;;;3.75;;
36391;SDS011;22639;42.690;23.356;2023-04-15T04:58:54;7.88;;;4.38;;
36391;SDS011;22639;42.690;23.356;2023-04-15T05:02:18;4.60;;;4.15;;
36391;SDS011;22639;42.690;23.356;2023-04-15T05:05:42;7.10;;;5.32;;
36391;SDS011;22639;42.690;23.356;2023-04-15T05:09:06;6.72;;;4.90;;
36391;SDS011;22639;42.690;23.356;2023-04-15T05:12:31;5.90;;;4.72;;
36391;SDS011;22639;42.690;23.356;2023-04-15T05:15:55;9.93;;;5.18;;
36391;SDS011;22639;42.690;23.356;2023-04-15T05:19:20;6.28;;;3.85;;
36391;SDS011;22639;42.690;23.356;2023-04-15T05:22:44;6.75;;;4.78;;
36391;SDS011;22639;42.690;23.356;2023-04-15T05:26:08;4.93;;;4.43;;
36391;SDS011;22639;42.690;23.356;2023-04-15T05:29:34;5.72;;;4.30;;
36391;SDS011;22639;42.690;23.356;2023-04-15T05:32:58;6.95;;;3.95;;
36391;SDS011;22639;42.690;23.356;2023-04-15T05:36:14;4.72;;;4.00;;
36391;SDS011;22639;42.690;23.356;2023-04-15T05:39:35;4.40;;;3.58;;
36391;SDS011;22639;42.690;23.356;2023-04-15T05:43:00;4.88;;;3.83;;
36391;SDS011;22639;42.690;23.356;2023-04-15T05:46:24;5.25;;;3.10;;
36391;SDS011;22639;42.690;23.356;2023-04-15T05:49:47;5.18;;;2.47;;
36391;SDS011;22639;42.690;23.356;2023-04-15T05:53:11;3.78;;;3.30;;
36391;SDS011;22639;42.690;23.356;2023-04-15T05:56:34;5.10;;;4.35;;
36391;SDS011;22639;42.690;23.356;2023-04-15T05:59:55;3.88;;;2.55;;
36391;SDS011;22639;42.690;23.356;2023-04-15T06:03:10;3.75;;;2.30;;
36391;SDS011;22639;42.690;23.356;2023-04-15T06:06:35;10.75;;;6.85;;
36391;SDS011;22639;42.690;23.356;2023-04-15T06:10:01;17.83;;;14.52;;
36391;SDS011;22639;42.690;23.356;2023-04-15T06:13:25;7.28;;;5.13;;
36391;SDS011;22639;42.690;23.356;2023-04-15T06:16:49;6.60;;;4.00;;
36391;SDS011;22639;42.690;23.356;2023-04-15T06:20:12;4.82;;;4.00;;
36391;SDS011;22639;42.690;23.356;2023-04-15T06:23:36;4.47;;;3.97;;
36391;SDS011;22639;42.690;23.356;2023-04-15T06:27:01;4.75;;;3.80;;
36391;SDS011;22639;42.690;23.356;2023-04-15T06:30:22;4.43;;;3.35;;
36391;SDS011;22639;42.690;23.356;2023-04-15T06:33:46;4.00;;;3.28;;
36391;SDS011;22639;42.690;23.356;2023-04-15T06:37:10;3.88;;;3.45;;
36391;SDS011;22639;42.690;23.356;2023-04-15T06:40:34;4.90;;;3.78;;
36391;SDS011;22639;42.690;23.356;2023-04-15T06:43:59;5.03;;;3.80;;
36391;SDS011;22639;42.690;23.356;2023-04-15T06:47:23;5.10;;;3.20;;
36391;SDS011;22639;42.690;23.356;2023-04-15T06:50:48;4.03;;;3.13;;
36391;SDS011;22639;42.690;23.356;2023-04-15T06:54:11;6.75;;;3.15;;
36391;SDS011;22639;42.690;23.356;2023-04-15T06:57:35;2.88;;;2.58;;
36391;SDS011;22639;42.690;23.356;2023-04-15T07:00:59;2.95;;;2.17;;
36391;SDS011;22639;42.690;23.356;2023-04-15T07:04:23;5.75;;;2.95;;
36391;SDS011;22639;42.690;23.356;2023-04-15T07:07:48;5.00;;;3.03;;
36391;SDS011;22639;42.690;23.356;2023-04-15T07:11:12;4.15;;;2.97;;
36391;SDS011;22639;42.690;23.356;2023-04-15T07:14:36;3.38;;;2.80;;
36391;SDS011;22639;42.690;23.356;2023-04-15T07:18:00;5.00;;;2.95;;
36391;SDS011;22639;42.690;23.356;2023-04-15T07:21:24;3.28;;;2.13;;
36391;SDS011;22639;42.690;23.356;2023-04-15T07:24:49;3.33;;;2.70;;
36391;SDS011;22639;42.690;23.356;2023-04-15T07:28:13;4.20;;;2.70;;
36391;SDS011;22639;42.690;23.356;2023-04-15T07:31:37;3.63;;;3.30;;
36391;SDS011;22639;42.690;23.356;2023-04-15T07:35:01;3.40;;;3.00;;
36391;SDS011;22639;42.690;23.356;2023-04-15T07:38:25;3.45;;;2.50;;
36391;SDS011;22639;42.690;23.356;2023-04-15T07:41:50;3.63;;;3.13;;
36391;SDS011;22639;42.690;23.356;2023-04-15T07:45:14;4.05;;;2.92;;
36391;SDS011;22639;42.690;23.356;2023-04-15T07:48:38;3.08;;;2.53;;
36391;SDS011;22639;42.690;23.356;2023-04-15T07:52:02;3.00;;;2.72;;
36391;SDS011;22639;42.690;23.356;2023-04-15T07:55:25;3.70;;;3.10;;
36391;SDS011;22639;42.690;23.356;2023-04-15T07:58:48;2.97;;;2.63;;
36391;SDS011;22639;42.690;23.356;2023-04-15T08:02:12;2.80;;;2.30;;
36391;SDS011;22639;42.690;23.356;2023-04-15T08:05:36;3.90;;;2.78;;
36391;SDS011;22639;42.690;23.356;2023-04-15T08:08:57;2.30;;;2.10;;
36391;SDS011;22639;42.690;23.356;2023-04-15T08:12:21;4.43;;;3.13;;
36391;SDS011;22639;42.690;23.356;2023-04-15T08:15:43;3.28;;;2.40;;
36391;SDS011;22639;42.690;23.356;2023-04-15T08:19:06;3.00;;;2.15;;
36391;SDS011;22639;42.690;23.356;2023-04-15T08:22:25;3.00;;;2.40;;
36391;SDS011;22639;42.690;23.356;2023-04-15T08:25:50;5.20;;;3.90;;
36391;SDS011;22639;42.690;23.356;2023-04-15T08:29:14;3.78;;;3.25;;
36391;SDS011;22639;42.690;23.356;2023-04-15T08:32:38;4.57;;;3.05;;
36391;SDS011;22639;42.690;23.356;2023-04-15T08:36:02;3.88;;;3.08;;
36391;SDS011;22639;42.690;23.356;2023-04-15T08:39:26;4.50;;;2.75;;
36391;SDS011;22639;42.690;23.356;2023-04-15T08:42:55;3.50;;;2.33;;
36391;SDS011;22639;42.690;23.356;2023-04-15T08:46:23;4.68;;;2.75;;
36391;SDS011;22639;42.690;23.356;2023-04-15T08:49:51;2.85;;;2.20;;
36391;SDS011;22639;42.690;23.356;2023-04-15T08:53:18;2.90;;;1.92;;
36391;SDS011;22639;42.690;23.356;2023-04-15T08:56:42;2.10;;;1.88;;
36391;SDS011;22639;42.690;23.356;2023-04-15T09:00:08;2.38;;;2.13;;
36391;SDS011;22639;42.690;23.356;2023-04-15T09:03:32;1.88;;;1.65;;
36391;SDS011;22639;42.690;23.356;2023-04-15T09:06:57;3.63;;;2.13;;
36391;SDS011;22639;42.690;23.356;2023-04-15T09:10:21;4.25;;;2.00;;
36391;SDS011;22639;42.690;23.356;2023-04-15T09:13:46;2.22;;;1.73;;
36391;SDS011;22639;42.690;23.356;2023-04-15T09:17:11;1.42;;;1.17;;
36391;SDS011;22639;42.690;23.356;2023-04-15T09:20:41;2.40;;;1.85;;
36391;SDS011;22639;42.690;23.356;2023-04-15T09:24:05;3.20;;;1.90;;
36391;SDS011;22639;42.690;23.356;2023-04-15T09:27:49;4.15;;;1.30;;
36391;SDS011;22639;42.690;23.356;2023-04-15T09:31:13;1.80;;;1.02;;
36391;SDS011;22639;42.690;23.356;2023-04-15T09:34:38;1.60;;;1.15;;
36391;SDS011;22639;42.690;23.356;2023-04-15T09:38:05;2.17;;;1.40;;
36391;SDS011;22639;42.690;23.356;2023-04-15T09:41:30;1.90;;;1.63;;
36391;SDS011;22639;42.690;23.356;2023-04-15T09:44:53;2.13;;;1.30;;
36391;SDS011;22639;42.690;23.356;2023-04-15T09:48:21;3.75;;;1.00;;
36391;SDS011;22639;42.690;23.356;2023-04-15T09:51:46;1.83;;;1.05;;
36391;SDS011;22639;42.690;23.356;2023-04-15T09:55:10;2.70;;;1.40;;
36391;SDS011;22639;42.690;23.356;2023-04-15T09:58:35;1.35;;;1.25;;
36391;SDS011;22639;42.690;23.356;2023-04-15T10:01:59;2.38;;;1.30;;
36391;SDS011;22639;42.690;23.356;2023-04-15T10:05:23;1.58;;;0.90;;
36391;SDS011;22639;42.690;23.356;2023-04-15T10:08:53;2.40;;;1.13;;
36391;SDS011;22639;42.690;23.356;2023-04-15T10:12:18;1.58;;;0.70;;
36391;SDS011;22639;42.690;23.356;2023-04-15T10:15:46;1.67;;;1.00;;
36391;SDS011;22639;42.690;23.356;2023-04-15T10:19:12;1.50;;;1.20;;
36391;SDS011;22639;42.690;23.356;2023-04-15T10:22:39;1.15;;;0.82;;
36391;SDS011;22639;42.690;23.356;2023-04-15T10:26:03;1.58;;;1.10;;
36391;SDS011;22639;42.690;23.356;2023-04-15T10:29:28;1.23;;;1.13;;
36391;SDS011;22639;42.690;23.356;2023-04-15T10:32:52;1.35;;;0.95;;
36391;SDS011;22639;42.690;23.356;2023-04-15T10:36:17;2.08;;;0.90;;
36391;SDS011;22639;42.690;23.356;2023-04-15T10:39:46;1.80;;;1.60;;
36391;SDS011;22639;42.690;23.356;2023-04-15T10:43:11;1.52;;;0.70;;
36391;SDS011;22639;42.690;23.356;2023-04-15T10:46:50;2.08;;;0.70;;
36391;SDS011;22639;42.690;23.356;2023-04-15T10:50:19;1.35;;;0.90;;
36391;SDS011;22639;42.690;23.356;2023-04-15T10:53:58;2.47;;;1.27;;
36391;SDS011;22639;42.690;23.356;2023-04-15T10:57:33;1.58;;;1.15;;
36391;SDS011;22639;42.690;23.356;2023-04-15T11:01:05;1.23;;;0.98;;
36391;SDS011;22639;42.690;23.356;2023-04-15T11:08:16;1.30;;;0.70;;
36391;SDS011;22639;42.690;23.356;2023-04-15T11:12:07;1.70;;;1.08;;
36391;SDS011;22639;42.690;23.356;2023-04-15T11:15:35;0.98;;;0.80;;
36391;SDS011;22639;42.690;23.356;2023-04-15T11:19:06;1.88;;;0.82;;
36391;SDS011;22639;42.690;23.356;2023-04-15T11:22:31;0.52;;;0.52;;
36391;SDS011;22639;42.690;23.356;2023-04-15T11:26:00;2.22;;;1.25;;
36391;SDS011;22639;42.690;23.356;2023-04-15T11:29:29;2.28;;;0.75;;
36391;SDS011;22639;42.690;23.356;2023-04-15T11:32:57;1.10;;;0.80;;
36391;SDS011;22639;42.690;23.356;2023-04-15T11:36:27;1.33;;;0.90;;
36391;SDS011;22639;42.690;23.356;2023-04-15T11:39:56;1.48;;;0.80;;
36391;SDS011;22639;42.690;23.356;2023-04-15T11:43:20;0.90;;;0.70;;
36391;SDS011;22639;42.690;23.356;2023-04-15T11:46:46;0.57;;;0.50;;
36391;SDS011;22639;42.690;23.356;2023-04-15T11:50:20;1.83;;;0.90;;
36391;SDS011;22639;42.690;23.356;2023-04-15T11:53:46;0.90;;;0.47;;
36391;SDS011;22639;42.690;23.356;2023-04-15T11:57:11;0.50;;;0.50;;
36391;SDS011;22639;42.690;23.356;2023-04-15T12:00:38;0.73;;;0.65;;
36391;SDS011;22639;42.690;23.356;2023-04-15T12:04:17;1.60;;;0.50;;
36391;SDS011;22639;42.690;23.356;2023-04-15T12:07:56;0.30;;;0.30;;
36391;SDS011;22639;42.690;23.356;2023-04-15T12:14:57;1.08;;;0.40;;
36391;SDS011;22639;42.690;23.356;2023-04-15T12:18:21;0.75;;;0.52;;
36391;SDS011;22639;42.690;23.356;2023-04-15T12:21:49;0.40;;;0.40;;
36391;SDS011;22639;42.690;23.356;2023-04-15T12:25:13;0.47;;;0.47;;
36391;SDS011;22639;42.690;23.356;2023-04-15T12:28:39;1.65;;;0.70;;
36391;SDS011;22639;42.690;23.356;2023-04-15T12:32:11;0.28;;;0.28;;
36391;SDS011;22639;42.690;23.356;2023-04-15T12:35:34;1.05;;;0.35;;
36391;SDS011;22639;42.690;23.356;2023-04-15T12:39:04;1.40;;;0.40;;
36391;SDS011;22639;42.690;23.356;2023-04-15T12:42:32;1.50;;;0.32;;
36391;SDS011;22639;42.690;23.356;2023-04-15T12:45:56;1.10;;;0.52;;
36391;SDS011;22639;42.690;23.356;2023-04-15T12:49:21;0.60;;;0.30;;
36391;SDS011;22639;42.690;23.356;2023-04-15T12:52:47;1.25;;;0.60;;
36391;SDS011;22639;42.690;23.356;2023-04-15T12:56:11;0.30;;;0.30;;
36391;SDS011;22639;42.690;23.356;2023-04-15T12:59:35;0.30;;;0.25;;
36391;SDS011;22639;42.690;23.356;2023-04-15T13:02:59;0.40;;;0.30;;
36391;SDS011;22639;42.690;23.356;2023-04-15T13:06:23;0.40;;;0.40;;
36391;SDS011;22639;42.690;23.356;2023-04-15T13:09:47;0.52;;;0.43;;
36391;SDS011;22639;42.690;23.356;2023-04-15T13:13:11;0.30;;;0.30;;
36391;SDS011;22639;42.690;23.356;2023-04-15T13:16:38;1.05;;;0.47;;
36391;SDS011;22639;42.690;23.356;2023-04-15T13:20:02;0.30;;;0.30;;
36391;SDS011;22639;42.690;23.356;2023-04-15T13:23:26;0.63;;;0.30;;
36391;SDS011;22639;42.690;23.356;2023-04-15T13:26:50;0.70;;;0.25;;
36391;SDS011;22639;42.690;23.356;2023-04-15T13:30:14;0.40;;;0.40;;
36391;SDS011;22639;42.690;23.356;2023-04-15T13:33:37;0.52;;;0.40;;
36391;SDS011;22639;42.690;23.356;2023-04-15T13:37:05;0.28;;;0.28;;
36391;SDS011;22639;42.690;23.356;2023-04-15T13:40:29;1.25;;;0.35;;
36391;SDS011;22639;42.690;23.356;2023-04-15T13:43:53;0.60;;;0.60;;
36391;SDS011;22639;42.690;23.356;2023-04-15T13:47:20;0.30;;;0.30;;
36391;SDS011;22639;42.690;23.356;2023-04-15T13:50:44;0.88;;;0.60;;
36391;SDS011;22639;42.690;23.356;2023-04-15T13:54:08;0.85;;;0.43;;
36391;SDS011;22639;42.690;23.356;2023-04-15T13:57:32;0.98;;;0.32;;
36391;SDS011;22639;42.690;23.356;2023-04-15T14:00:56;1.20;;;0.40;;
36391;SDS011;22639;42.690;23.356;2023-04-15T14:04:20;0.88;;;0.50;;
36391;SDS011;22639;42.690;23.356;2023-04-15T14:07:44;0.50;;;0.30;;
36391;SDS011;22639;42.690;23.356;2023-04-15T14:11:08;1.10;;;0.35;;
36391;SDS011;22639;42.690;23.356;2023-04-15T14:14:32;0.30;;;0.30;;
36391;SDS011;22639;42.690;23.356;2023-04-15T14:17:56;0.40;;;0.30;;
36391;SDS011;22639;42.690;23.356;2023-04-15T14:21:20;0.75;;;0.60;;
36391;SDS011;22639;42.690;23.356;2023-04-15T14:24:44;0.57;;;0.30;;
36391;SDS011;22639;42.690;23.356;2023-04-15T14:28:08;0.60;;;0.30;;
36391;SDS011;22639;42.690;23.356;2023-04-15T14:31:32;1.10;;;0.82;;
36391;SDS011;22639;42.690;23.356;2023-04-15T14:34:56;0.93;;;0.40;;
36391;SDS011;22639;42.690;23.356;2023-04-15T14:38:20;0.90;;;0.45;;
36391;SDS011;22639;42.690;23.356;2023-04-15T14:41:44;0.95;;;0.50;;
36391;SDS011;22639;42.690;23.356;2023-04-15T14:45:09;0.68;;;0.57;;
36391;SDS011;22639;42.690;23.356;2023-04-15T14:48:33;1.38;;;0.63;;
36391;SDS011;22639;42.690;23.356;2023-04-15T14:51:56;0.63;;;0.60;;
36391;SDS011;22639;42.690;23.356;2023-04-15T14:55:20;0.55;;;0.55;;
36391;SDS011;22639;42.690;23.356;2023-04-15T14:58:44;1.00;;;0.50;;
36391;SDS011;22639;42.690;23.356;2023-04-15T15:02:08;0.65;;;0.40;;
36391;SDS011;22639;42.690;23.356;2023-04-15T15:05:40;1.20;;;0.85;;
36391;SDS011;22639;42.690;23.356;2023-04-15T15:09:06;0.60;;;0.50;;
36391;SDS011;22639;42.690;23.356;2023-04-15T15:12:31;1.15;;;0.82;;
36391;SDS011;22639;42.690;23.356;2023-04-15T15:15:55;1.42;;;1.20;;
36391;SDS011;22639;42.690;23.356;2023-04-15T15:19:19;0.63;;;0.60;;
36391;SDS011;22639;42.690;23.356;2023-04-15T15:22:45;0.82;;;0.60;;
36391;SDS011;22639;42.690;23.356;2023-04-15T15:26:09;0.45;;;0.45;;
36391;SDS011;22639;42.690;23.356;2023-04-15T15:29:33;3.25;;;2.35;;
36391;SDS011;22639;42.690;23.356;2023-04-15T15:32:57;1.45;;;1.27;;
36391;SDS011;22639;42.690;23.356;2023-04-15T15:36:21;0.60;;;0.55;;
36391;SDS011;22639;42.690;23.356;2023-04-15T15:39:45;0.73;;;0.70;;
36391;SDS011;22639;42.690;23.356;2023-04-15T15:43:09;2.20;;;0.60;;
36391;SDS011;22639;42.690;23.356;2023-04-15T15:46:33;2.15;;;0.50;;
36391;SDS011;22639;42.690;23.356;2023-04-15T15:49:57;0.47;;;0.43;;
36391;SDS011;22639;42.690;23.356;2023-04-15T15:53:22;0.82;;;0.75;;
36391;SDS011;22639;42.690;23.356;2023-04-15T15:56:46;0.75;;;0.60;;
36391;SDS011;22639;42.690;23.356;2023-04-15T16:00:10;1.50;;;0.93;;
36391;SDS011;22639;42.690;23.356;2023-04-15T16:03:35;0.70;;;0.45;;
36391;SDS011;22639;42.690;23.356;2023-04-15T16:06:59;0.98;;;0.38;;
36391;SDS011;22639;42.690;23.356;2023-04-15T16:10:23;1.15;;;0.60;;
36391;SDS011;22639;42.690;23.356;2023-04-15T16:13:47;1.70;;;0.52;;
36391;SDS011;22639;42.690;23.356;2023-04-15T16:17:11;0.40;;;0.38;;
36391;SDS011;22639;42.690;23.356;2023-04-15T16:20:36;0.95;;;0.38;;
36391;SDS011;22639;42.690;23.356;2023-04-15T16:24:00;1.00;;;0.73;;
36391;SDS011;22639;42.690;23.356;2023-04-15T16:27:25;0.98;;;0.45;;
36391;SDS011;22639;42.690;23.356;2023-04-15T16:30:48;0.43;;;0.40;;
36391;SDS011;22639;42.690;23.356;2023-04-15T16:34:13;1.85;;;0.98;;
36391;SDS011;22639;42.690;23.356;2023-04-15T16:37:38;1.17;;;0.80;;
36391;SDS011;22639;42.690;23.356;2023-04-15T16:41:02;1.45;;;0.90;;
36391;SDS011;22639;42.690;23.356;2023-04-15T16:44:26;0.68;;;0.68;;
36391;SDS011;22639;42.690;23.356;2023-04-15T16:47:50;1.58;;;1.20;;
36391;SDS011;22639;42.690;23.356;2023-04-15T16:51:14;1.90;;;1.25;;
36391;SDS011;22639;42.690;23.356;2023-04-15T16:54:38;2.08;;;1.60;;
36391;SDS011;22639;42.690;23.356;2023-04-15T16:58:03;1.50;;;1.13;;
36391;SDS011;22639;42.690;23.356;2023-04-15T17:01:27;3.85;;;1.15;;
36391;SDS011;22639;42.690;23.356;2023-04-15T17:04:51;0.93;;;0.68;;
36391;SDS011;22639;42.690;23.356;2023-04-15T17:08:15;1.77;;;0.98;;
36391;SDS011;22639;42.690;23.356;2023-04-15T17:11:39;0.63;;;0.63;;
36391;SDS011;22639;42.690;23.356;2023-04-15T17:15:03;1.90;;;1.10;;
36391;SDS011;22639;42.690;23.356;2023-04-15T17:18:27;0.77;;;0.68;;
36391;SDS011;22639;42.690;23.356;2023-04-15T17:21:51;2.13;;;1.15;;
36391;SDS011;22639;42.690;23.356;2023-04-15T17:25:15;2.33;;;1.33;;
36391;SDS011;22639;42.690;23.356;2023-04-15T17:28:39;1.75;;;1.55;;
36391;SDS011;22639;42.690;23.356;2023-04-15T17:32:03;1.35;;;1.25;;
36391;SDS011;22639;42.690;23.356;2023-04-15T17:35:27;1.77;;;1.52;;
36391;SDS011;22639;42.690;23.356;2023-04-15T17:38:51;3.63;;;2.55;;
36391;SDS011;22639;42.690;23.356;2023-04-15T17:42:16;4.10;;;2.78;;
36391;SDS011;22639;42.690;23.356;2023-04-15T17:45:40;3.85;;;1.75;;
36391;SDS011;22639;42.690;23.356;2023-04-15T17:49:03;3.63;;;1.83;;
36391;SDS011;22639;42.690;23.356;2023-04-15T17:52:27;2.25;;;1.48;;
36391;SDS011;22639;42.690;23.356;2023-04-15T17:55:51;3.28;;;2.30;;
36391;SDS011;22639;42.690;23.356;2023-04-15T17:59:15;3.38;;;2.10;;
36391;SDS011;22639;42.690;23.356;2023-04-15T18:02:40;4.20;;;2.42;;
36391;SDS011;22639;42.690;23.356;2023-04-15T18:06:04;2.42;;;2.22;;
36391;SDS011;22639;42.690;23.356;2023-04-15T18:09:29;2.90;;;2.25;;
36391;SDS011;22639;42.690;23.356;2023-04-15T18:12:53;2.03;;;1.27;;
36391;SDS011;22639;42.690;23.356;2023-04-15T18:16:16;2.55;;;1.33;;
36391;SDS011;22639;42.690;23.356;2023-04-15T18:19:40;1.48;;;1.00;;
36391;SDS011;22639;42.690;23.356;2023-04-15T18:23:04;1.30;;;1.20;;
36391;SDS011;22639;42.690;23.356;2023-04-15T18:26:28;2.72;;;1.05;;
36391;SDS011;22639;42.690;23.356;2023-04-15T18:29:52;2.08;;;1.10;;
36391;SDS011;22639;42.690;23.356;2023-04-15T18:33:17;3.28;;;2.03;;
36391;SDS011;22639;42.690;23.356;2023-04-15T18:36:41;2.75;;;2.28;;
36391;SDS011;22639;42.690;23.356;2023-04-15T18:40:05;4.28;;;2.65;;
36391;SDS011;22639;42.690;23.356;2023-04-15T18:43:30;7.55;;;2.13;;
36391;SDS011;22639;42.690;23.356;2023-04-15T18:46:54;2.22;;;1.92;;
36391;SDS011;22639;42.690;23.356;2023-04-15T18:50:18;3.78;;;2.83;;
36391;SDS011;22639;42.690;23.356;2023-04-15T18:53:42;3.58;;;2.47;;
36391;SDS011;22639;42.690;23.356;2023-04-15T18:57:06;5.15;;;2.95;;
36391;SDS011;22639;42.690;23.356;2023-04-15T19:00:30;12.95;;;5.15;;
36391;SDS011;22639;42.690;23.356;2023-04-15T19:03:55;8.75;;;4.60;;
36391;SDS011;22639;42.690;23.356;2023-04-15T19:07:19;13.73;;;6.72;;
36391;SDS011;22639;42.690;23.356;2023-04-15T19:10:43;14.00;;;7.25;;
36391;SDS011;22639;42.690;23.356;2023-04-15T19:14:08;7.57;;;4.28;;
36391;SDS011;22639;42.690;23.356;2023-04-15T19:17:32;5.07;;;3.65;;
36391;SDS011;22639;42.690;23.356;2023-04-15T19:20:56;6.85;;;3.40;;
36391;SDS011;22639;42.690;23.356;2023-04-15T19:24:20;14.88;;;6.38;;
36391;SDS011;22639;42.690;23.356;2023-04-15T19:27:43;16.20;;;6.40;;
36391;SDS011;22639;42.690;23.356;2023-04-15T19:31:07;7.90;;;5.45;;
36391;SDS011;22639;42.690;23.356;2023-04-15T19:34:31;5.15;;;4.18;;
36391;SDS011;22639;42.690;23.356;2023-04-15T19:37:55;4.90;;;3.97;;
36391;SDS011;22639;42.690;23.356;2023-04-15T19:41:19;8.20;;;4.70;;
36391;SDS011;22639;42.690;23.356;2023-04-15T19:44:43;9.43;;;5.25;;
36391;SDS011;22639;42.690;23.356;2023-04-15T19:48:09;9.90;;;4.93;;
36391;SDS011;22639;42.690;23.356;2023-04-15T19:51:35;47.60;;;34.45;;
36391;SDS011;22639;42.690;23.356;2023-04-15T19:54:58;33.72;;;26.23;;
36391;SDS011;22639;42.690;23.356;2023-04-15T19:58:22;16.52;;;12.63;;
36391;SDS011;22639;42.690;23.356;2023-04-15T20:01:46;5.07;;;3.30;;
36391;SDS011;22639;42.690;23.356;2023-04-15T20:05:10;6.45;;;4.45;;
36391;SDS011;22639;42.690;23.356;2023-04-15T20:08:34;8.10;;;4.82;;
36391;SDS011;22639;42.690;23.356;2023-04-15T20:11:58;5.95;;;4.10;;
36391;SDS011;22639;42.690;23.356;2023-04-15T20:15:22;6.00;;;4.50;;
36391;SDS011;22639;42.690;23.356;2023-04-15T20:18:46;6.10;;;4.18;;
36391;SDS011;22639;42.690;23.356;2023-04-15T20:22:10;6.88;;;4.95;;